Time;durP1;ratioP1;P1;durP2;ratioP2;P2;SDS_P1;SDS_P2;PMS_P1;PMS_P2;Temp;Humidity;BMP_temperature;BMP_pressure;BME280_temperature;BME280_humidity;BME280_pressure;Samples;Min_cycle;Max_cycle;Signal;HPM_P1;HPM_P2
2022/03/29 00:02:14;;;;;;;23.58;14.23;;;7.20;99.90;;;;;;5090995;28;20043;-61
2022/03/29 00:04:40;;;;;;;24.95;14.48;;;7.30;99.90;;;;;;5090827;28;20065;-61
2022/03/29 00:07:06;;;;;;;24.05;13.95;;;7.00;99.90;;;;;;5073753;28;20127;-61
2022/03/29 00:09:31;;;;;;;22.08;13.93;;;7.20;99.90;;;;;;5092195;28;20036;-61
2022/03/29 00:11:57;;;;;;;22.80;14.00;;;7.10;99.90;;;;;;5091151;28;20036;-61
2022/03/29 00:14:22;;;;;;;25.45;15.18;;;7.60;99.90;;;;;;5073393;28;20155;-61
2022/03/29 00:16:48;;;;;;;23.75;14.07;;;7.30;99.90;;;;;;5092200;28;20048;-61
2022/03/29 00:19:14;;;;;;;24.45;15.82;;;7.20;99.90;;;;;;5091064;28;20048;-61
2022/03/29 00:21:39;;;;;;;25.35;15.88;;;7.30;99.90;;;;;;5090365;28;20500;-61
2022/03/29 00:24:05;;;;;;;25.65;14.07;;;7.10;99.90;;;;;;5092410;28;20043;-61
2022/03/29 00:26:31;;;;;;;23.35;14.55;;;7.00;99.90;;;;;;5095346;28;20502;-61
2022/03/29 00:28:57;;;;;;;22.70;13.60;;;7.30;99.90;;;;;;5095681;28;20068;-61
2022/03/29 00:31:22;;;;;;;21.85;13.48;;;7.20;99.90;;;;;;5096215;28;20036;-61
2022/03/29 00:33:49;;;;;;;27.60;14.57;;;7.10;99.90;;;;;;5095963;28;20521;-61
2022/03/29 00:36:15;;;;;;;23.63;12.98;;;7.20;99.90;;;;;;5095155;28;20047;-61
2022/03/29 00:38:41;;;;;;;22.08;14.00;;;8.50;99.90;;;;;;5095196;28;20071;-61
2022/03/29 00:41:07;;;;;;;20.67;12.75;;;7.10;99.90;;;;;;5094767;28;20500;-61
2022/03/29 00:43:33;;;;;;;22.30;13.23;;;7.00;99.90;;;;;;5094688;28;20043;-61
2022/03/29 00:45:59;;;;;;;22.98;13.85;;;7.30;99.90;;;;;;5094558;28;20497;-61
2022/03/29 00:48:24;;;;;;;20.65;13.43;;;6.90;99.90;;;;;;5094690;28;20032;-61
2022/03/29 00:50:52;;;;;;;22.70;13.82;;;7.10;99.90;;;;;;5095738;28;20072;-61
2022/03/29 00:53:18;;;;;;;23.83;13.52;;;6.90;99.90;;;;;;5094345;28;20040;-61
2022/03/29 00:55:45;;;;;;;23.30;13.90;;;8.40;99.90;;;;;;5094865;28;20493;-61
2022/03/29 00:58:12;;;;;;;25.88;14.65;;;7.00;99.90;;;;;;5094486;28;20044;-61
2022/03/29 01:00:38;;;;;;;23.15;12.70;;;7.00;99.90;;;;;;5094746;28;20047;-61
2022/03/29 01:03:04;;;;;;;19.63;12.48;;;7.00;99.90;;;;;;5094397;28;20032;-61
2022/03/29 01:05:31;;;;;;;22.75;12.82;;;7.60;99.90;;;;;;5094424;28;20464;-61
2022/03/29 01:07:58;;;;;;;22.85;12.82;;;6.90;99.90;;;;;;5095560;28;20036;-61
2022/03/29 01:10:25;;;;;;;21.45;12.80;;;7.00;99.90;;;;;;5093718;28;20465;-61
2022/03/29 01:13:00;;;;;;;19.45;12.25;;;7.00;99.90;;;;;;5095304;28;20032;-61
2022/03/29 01:15:27;;;;;;;21.50;13.15;;;7.00;99.90;;;;;;5077384;28;20384;-61
2022/03/29 01:17:54;;;;;;;26.88;14.13;;;6.90;99.90;;;;;;5092967;28;20044;-61
2022/03/29 01:20:27;;;;;;;24.50;13.60;;;7.60;99.90;;;;;;5094099;28;20051;-61
2022/03/29 01:22:54;;;;;;;22.50;14.00;;;8.10;99.90;;;;;;5093889;28;20051;-61
2022/03/29 01:25:24;;;;;;;24.08;13.77;;;6.90;99.90;;;;;;5092845;28;20382;-61
2022/03/29 01:27:51;;;;;;;26.75;15.20;;;7.10;99.90;;;;;;5093950;28;20082;-61
2022/03/29 01:30:18;;;;;;;20.88;13.77;;;6.70;99.90;;;;;;5093920;28;20457;-61
2022/03/29 01:32:46;;;;;;;28.95;14.88;;;6.70;99.90;;;;;;5094285;28;20071;-61
2022/03/29 01:35:13;;;;;;;20.42;13.05;;;6.90;99.90;;;;;;5094202;28;20115;-61
2022/03/29 01:37:39;;;;;;;22.63;14.23;;;7.70;99.90;;;;;;5093004;28;20438;-61
2022/03/29 01:40:20;;;;;;;23.02;14.27;;;6.90;99.90;;;;;;5094051;28;20400;-61
2022/03/29 01:42:50;;;;;;;26.45;13.52;;;7.20;99.90;;;;;;5076600;28;20039;-61
2022/03/29 01:45:17;;;;;;;24.95;13.48;;;6.90;99.90;;;;;;5092530;28;20477;-61
2022/03/29 01:47:43;;;;;;;24.70;15.75;;;7.00;99.90;;;;;;5076441;28;20120;-61
2022/03/29 01:50:11;;;;;;;24.52;14.35;;;7.60;99.90;;;;;;5093697;28;20094;-61
2022/03/29 01:52:42;;;;;;;25.83;13.70;;;7.20;99.90;;;;;;5092868;28;20107;-61
2022/03/29 01:55:09;;;;;;;25.83;14.55;;;7.00;99.90;;;;;;5093054;28;20044;-61
2022/03/29 01:57:36;;;;;;;24.77;14.98;;;6.80;99.90;;;;;;5076953;28;20420;-61
2022/03/29 02:02:51;;;;;;;28.83;16.92;;;6.90;99.90;;;;;;5093296;28;20374;-61
2022/03/29 02:05:17;;;;;;;25.67;15.00;;;6.50;99.90;;;;;;5094202;28;20116;-61
2022/03/29 02:07:44;;;;;;;27.08;17.08;;;6.90;99.90;;;;;;5093400;28;20388;-61
2022/03/29 02:10:10;;;;;;;27.30;16.67;;;6.90;99.90;;;;;;5093043;28;20036;-61
2022/03/29 02:12:36;;;;;;;24.85;15.02;;;;;;;;;;5092799;28;20461;-61
2022/03/29 02:15:03;;;;;;;29.15;16.75;;;6.50;99.90;;;;;;5075815;28;20044;-61
2022/03/29 02:17:29;;;;;;;32.38;15.13;;;6.70;99.90;;;;;;5092844;28;20048;-61
2022/03/29 02:19:54;;;;;;;26.85;16.15;;;6.50;99.90;;;;;;5093407;28;20082;-61
2022/03/29 02:22:20;;;;;;;33.70;16.45;;;7.00;99.90;;;;;;5092651;28;20476;-61
2022/03/29 02:24:45;;;;;;;25.58;15.25;;;6.60;99.90;;;;;;5092985;28;20038;-61
2022/03/29 02:27:11;;;;;;;27.10;15.68;;;7.20;99.90;;;;;;5093235;28;20476;-61
2022/03/29 02:29:36;;;;;;;24.67;14.98;;;6.90;99.90;;;;;;5093036;28;20028;-61
2022/03/29 02:32:02;;;;;;;27.13;15.70;;;6.50;99.90;;;;;;5093804;28;20036;-61
2022/03/29 02:34:28;;;;;;;27.42;15.55;;;6.70;99.90;;;;;;5093027;28;20373;-61
2022/03/29 02:36:55;;;;;;;26.92;16.58;;;7.20;99.90;;;;;;5092447;28;20039;-61
2022/03/29 02:39:21;;;;;;;34.47;16.63;;;6.40;99.90;;;;;;5092456;28;20092;-61
2022/03/29 02:41:46;;;;;;;27.67;16.05;;;7.10;99.90;;;;;;5092755;28;20118;-61
2022/03/29 02:44:12;;;;;;;28.65;16.70;;;7.30;99.90;;;;;;5093621;28;20039;-61
2022/03/29 02:46:37;;;;;;;29.95;17.55;;;6.70;99.90;;;;;;5075702;28;20048;-61
2022/03/29 02:49:03;;;;;;;28.77;15.70;;;6.60;99.90;;;;;;5091315;28;20442;-61
2022/03/29 02:51:29;;;;;;;28.00;16.77;;;6.70;99.90;;;;;;5093417;28;20450;-61
2022/03/29 02:53:54;;;;;;;30.55;17.13;;;7.90;99.90;;;;;;5092222;28;20040;-61
2022/03/29 02:56:20;;;;;;;26.77;17.30;;;6.50;99.90;;;;;;5091266;28;20496;-61
2022/03/29 02:58:46;;;;;;;26.92;15.82;;;6.50;99.90;;;;;;5092047;28;20048;-61
2022/03/29 03:01:11;;;;;;;29.13;16.58;;;7.00;99.90;;;;;;5091922;28;20071;-61
2022/03/29 03:03:37;;;;;;;27.20;16.15;;;7.90;99.90;;;;;;5093230;28;20043;-61
2022/03/29 03:06:03;;;;;;;31.27;17.17;;;6.80;99.90;;;;;;5092958;28;20484;-61
2022/03/29 03:08:29;;;;;;;28.50;16.73;;;6.70;99.90;;;;;;5091977;28;20040;-61
2022/03/29 03:10:55;;;;;;;25.10;15.57;;;6.40;99.90;;;;;;5091199;28;20071;-61
2022/03/29 03:13:20;;;;;;;35.92;17.27;;;7.00;99.90;;;;;;5091734;28;20431;-61
2022/03/29 03:15:46;;;;;;;28.38;16.80;;;6.80;99.90;;;;;;5091692;28;20052;-61
2022/03/29 03:18:13;;;;;;;29.30;17.95;;;7.10;99.90;;;;;;5090890;28;20047;-61
2022/03/29 03:20:39;;;;;;;26.77;16.40;;;6.60;99.90;;;;;;5093148;28;20090;-61
2022/03/29 03:23:04;;;;;;;30.25;17.50;;;7.10;99.90;;;;;;5091160;28;20484;-61
2022/03/29 03:25:30;;;;;;;26.85;15.85;;;6.80;99.90;;;;;;5091362;28;20055;-61
2022/03/29 03:27:56;;;;;;;28.20;17.02;;;;;;;;;;5074456;28;20043;-61
2022/03/29 03:30:22;;;;;;;28.23;16.80;;;6.50;99.90;;;;;;5092094;28;20445;-61
2022/03/29 03:32:48;;;;;;;29.23;18.25;;;6.80;99.90;;;;;;5091637;28;20131;-61
2022/03/29 03:35:14;;;;;;;33.53;19.52;;;7.20;99.90;;;;;;5091392;28;20402;-61
2022/03/29 03:37:41;;;;;;;26.83;16.90;;;6.80;99.90;;;;;;5090814;28;20040;-61
2022/03/29 03:40:10;;;;;;;31.98;17.48;;;6.80;99.90;;;;;;5092675;28;20547;-61
2022/03/29 03:42:37;;;;;;;32.42;17.90;;;6.70;99.90;;;;;;5091568;28;20366;-61
2022/03/29 03:45:05;;;;;;;29.85;17.75;;;8.40;99.90;;;;;;5090530;28;20040;-61
2022/03/29 03:47:31;;;;;;;33.15;18.65;;;6.80;99.90;;;;;;5074231;28;20044;-61
2022/03/29 03:49:56;;;;;;;37.33;22.00;;;7.00;99.90;;;;;;5091168;28;20512;-61
2022/03/29 03:52:22;;;;;;;30.95;18.50;;;7.10;99.90;;;;;;5091762;28;20028;-61
2022/03/29 03:54:48;;;;;;;31.60;19.92;;;6.80;99.90;;;;;;5090838;28;20061;-61
2022/03/29 03:57:14;;;;;;;34.25;18.90;;;7.00;99.90;;;;;;5091008;28;20063;-61
2022/03/29 03:59:40;;;;;;;33.42;17.25;;;;;;;;;;5089632;28;20097;-61
2022/03/29 04:02:06;;;;;;;30.73;18.50;;;6.80;99.90;;;;;;5091541;28;20388;-61
2022/03/29 04:04:31;;;;;;;34.63;19.70;;;6.60;99.90;;;;;;5091402;28;20044;-61
2022/03/29 04:06:57;;;;;;;31.75;19.70;;;6.70;99.90;;;;;;5091563;28;20044;-61
2022/03/29 04:09:24;;;;;;;30.10;18.02;;;6.50;99.90;;;;;;5091188;28;20135;-61
2022/03/29 04:11:49;;;;;;;32.17;18.60;;;7.00;99.90;;;;;;5090715;28;20044;-61
2022/03/29 04:14:16;;;;;;;35.88;20.33;;;6.80;99.90;;;;;;5091406;28;20032;-61
2022/03/29 04:16:41;;;;;;;33.47;19.95;;;6.50;99.90;;;;;;5091225;28;20118;-61
2022/03/29 04:19:07;;;;;;;35.72;18.25;;;7.10;99.90;;;;;;5090972;28;21021;-61
2022/03/29 04:21:33;;;;;;;29.50;18.45;;;7.00;99.90;;;;;;5091737;28;20165;-61
2022/03/29 04:23:58;;;;;;;33.28;18.52;;;6.30;99.90;;;;;;5090892;28;20499;-61
2022/03/29 04:26:24;;;;;;;31.35;18.23;;;6.60;99.90;;;;;;5073077;28;20123;-61
2022/03/29 04:28:50;;;;;;;30.70;18.92;;;7.20;99.90;;;;;;5090927;28;20534;-61
2022/03/29 04:31:15;;;;;;;31.83;18.83;;;6.70;99.90;;;;;;5090834;28;20039;-61
2022/03/29 04:33:44;;;;;;;34.03;19.00;;;7.20;99.90;;;;;;5090164;28;20086;-61
2022/03/29 04:36:09;;;;;;;32.88;18.67;;;6.60;99.90;;;;;;5092101;28;20054;-61
2022/03/29 04:38:35;;;;;;;29.38;17.73;;;6.90;99.90;;;;;;5092267;28;20040;-61
2022/03/29 04:41:01;;;;;;;30.25;17.23;;;6.80;99.90;;;;;;5089881;28;20085;-61
2022/03/29 04:43:26;;;;;;;32.45;17.23;;;8.00;99.90;;;;;;5091893;28;20510;-61
2022/03/29 04:45:52;;;;;;;27.58;17.42;;;6.80;99.90;;;;;;5090503;28;20040;-61
2022/03/29 04:48:18;;;;;;;28.40;16.52;;;6.70;99.90;;;;;;5090994;28;20618;-61
2022/03/29 04:50:43;;;;;;;30.80;17.52;;;7.00;99.90;;;;;;5090581;28;20047;-61
2022/03/29 04:53:09;;;;;;;32.60;18.65;;;6.80;99.90;;;;;;5090671;28;20071;-61
2022/03/29 04:55:35;;;;;;;27.58;16.65;;;6.90;99.90;;;;;;5072898;28;20088;-61
2022/03/29 04:58:01;;;;;;;30.60;17.35;;;6.80;99.90;;;;;;5090517;28;20420;-61
2022/03/29 05:00:27;;;;;;;29.70;17.92;;;6.80;99.90;;;;;;5090715;28;20412;-61
2022/03/29 05:02:53;;;;;;;28.38;18.20;;;6.70;99.90;;;;;;5090860;28;20119;-61
2022/03/29 05:05:19;;;;;;;34.97;18.20;;;6.50;99.90;;;;;;5090246;28;20082;-61
2022/03/29 05:07:46;;;;;;;28.45;16.92;;;7.00;99.90;;;;;;5091818;28;20028;-61
2022/03/29 05:10:13;;;;;;;30.52;18.27;;;6.70;99.90;;;;;;5091828;28;20484;-61
2022/03/29 05:12:42;;;;;;;31.52;19.92;;;7.10;99.90;;;;;;5094610;28;20409;-61
2022/03/29 05:15:09;;;;;;;28.05;17.10;;;6.50;99.90;;;;;;5095071;28;20036;-61
2022/03/29 05:17:35;;;;;;;32.40;18.00;;;6.60;99.90;;;;;;5076380;28;20051;-61
2022/03/29 05:20:05;;;;;;;29.58;18.27;;;6.40;99.90;;;;;;5095046;28;20040;-61
2022/03/29 05:22:31;;;;;;;34.17;18.73;;;;;;;;;;5059526;28;20125;-61
2022/03/29 05:24:58;;;;;;;29.95;18.25;;;6.80;99.90;;;;;;5094781;28;20047;-61
2022/03/29 05:27:23;;;;;;;32.60;20.67;;;6.70;99.90;;;;;;5093592;28;20036;-61
2022/03/29 05:29:49;;;;;;;31.38;17.92;;;7.40;99.90;;;;;;5092964;28;20043;-61
2022/03/29 05:32:18;;;;;;;33.47;19.75;;;6.60;99.90;;;;;;5093997;28;20071;-61
2022/03/29 05:34:45;;;;;;;29.15;19.23;;;7.00;99.90;;;;;;5093985;28;20040;-61
2022/03/29 05:37:11;;;;;;;32.33;19.20;;;6.80;99.90;;;;;;5092998;28;20055;-61
2022/03/29 05:39:37;;;;;;;33.30;19.77;;;6.90;99.90;;;;;;5093793;28;20040;-61
2022/03/29 05:42:03;;;;;;;32.67;19.38;;;6.70;99.90;;;;;;5093877;28;20044;-61
2022/03/29 05:44:29;;;;;;;33.60;17.85;;;6.40;99.90;;;;;;5075837;28;20051;-61
2022/03/29 05:49:39;;;;;;;35.40;19.45;;;7.00;99.90;;;;;;5094066;28;20055;-61
2022/03/29 05:52:06;;;;;;;34.60;19.42;;;6.90;99.90;;;;;;5076032;28;20079;-61
2022/03/29 05:54:32;;;;;;;31.95;19.67;;;6.80;99.90;;;;;;5093486;28;20059;-61
2022/03/29 05:56:57;;;;;;;29.83;18.88;;;7.50;99.90;;;;;;5094446;28;20039;-61
2022/03/29 05:59:23;;;;;;;29.15;18.88;;;7.30;99.90;;;;;;5093786;28;20032;-61
2022/03/29 06:01:49;;;;;;;34.17;19.45;;;7.00;99.90;;;;;;5093192;28;20531;-61
2022/03/29 06:04:16;;;;;;;30.73;18.00;;;6.60;99.90;;;;;;5094546;28;20032;-61
2022/03/29 06:06:44;;;;;;;35.85;20.13;;;7.10;99.90;;;;;;5075155;28;20036;-61
2022/03/29 06:09:10;;;;;;;29.73;17.70;;;7.30;99.90;;;;;;5092993;28;20515;-61
2022/03/29 06:11:36;;;;;;;37.78;20.88;;;7.00;99.90;;;;;;5094455;28;20032;-61
2022/03/29 06:14:02;;;;;;;30.95;19.45;;;6.90;99.90;;;;;;5092281;28;20397;-61
2022/03/29 06:16:28;;;;;;;31.52;18.92;;;6.90;99.90;;;;;;5075972;28;20177;-61
2022/03/29 06:18:54;;;;;;;31.67;18.63;;;6.60;99.90;;;;;;5093319;28;20111;-61
2022/03/29 06:21:21;;;;;;;32.38;19.48;;;6.70;99.90;;;;;;5092245;28;20571;-61
2022/03/29 06:23:47;;;;;;;29.17;18.38;;;7.30;99.90;;;;;;5075831;28;20125;-61
2022/03/29 06:26:13;;;;;;;32.78;17.88;;;7.00;99.90;;;;;;5093119;28;20062;-61
2022/03/29 06:28:38;;;;;;;28.85;17.23;;;7.30;99.90;;;;;;5092984;28;20119;-61
2022/03/29 06:31:04;;;;;;;31.15;18.00;;;7.10;99.90;;;;;;5094205;28;20040;-61
2022/03/29 06:33:30;;;;;;;30.80;17.88;;;7.20;99.90;;;;;;5093163;28;20385;-61
2022/03/29 06:35:55;;;;;;;30.40;18.20;;;7.30;99.90;;;;;;5093811;28;20397;-61
2022/03/29 06:38:22;;;;;;;29.50;17.75;;;6.70;99.90;;;;;;5092514;28;20488;-61
2022/03/29 06:40:48;;;;;;;33.88;18.08;;;7.30;99.90;;;;;;5091663;28;20520;-61
2022/03/29 06:43:14;;;;;;;31.02;18.63;;;7.50;99.90;;;;;;5075557;28;20123;-61
2022/03/29 06:45:40;;;;;;;35.03;18.27;;;;;;;;;;5093862;28;20087;-61
2022/03/29 06:48:07;;;;;;;33.47;19.77;;;7.00;99.90;;;;;;5093174;28;20040;-61
2022/03/29 06:50:33;;;;;;;33.72;18.88;;;;;;;;;;5092413;28;20438;-61
2022/03/29 06:53:02;;;;;;;32.97;19.70;;;6.70;99.90;;;;;;5093479;28;20039;-61
2022/03/29 06:55:28;;;;;;;33.00;19.52;;;7.60;99.90;;;;;;5093537;28;20052;-61
2022/03/29 06:57:55;;;;;;;30.20;20.33;;;7.00;99.90;;;;;;5109849;28;20492;-61
2022/03/29 07:00:21;;;;;;;31.48;19.85;;;6.90;99.90;;;;;;5109894;28;20036;-61
2022/03/29 07:02:48;;;;;;;36.00;20.00;;;6.80;99.90;;;;;;5094730;28;20036;-61
2022/03/29 07:05:14;;;;;;;30.10;17.85;;;;;;;;;;5109104;28;20039;-61
2022/03/29 07:07:41;;;;;;;36.03;20.48;;;7.10;99.90;;;;;;5093366;28;20039;-61
2022/03/29 07:12:57;;;;;;;34.50;19.50;;;7.80;99.90;;;;;;5093061;28;20633;-61
2022/03/29 07:15:24;;;;;;;33.65;19.25;;;7.10;99.90;;;;;;5095911;28;20043;-61
2022/03/29 07:17:50;;;;;;;32.03;18.77;;;7.20;99.90;;;;;;5110661;28;20509;-61
2022/03/29 07:20:16;;;;;;;35.00;19.33;;;;;;;;;;5108563;28;20069;-61
2022/03/29 07:22:43;;;;;;;34.55;20.00;;;7.00;99.90;;;;;;5108313;28;20040;-61
2022/03/29 07:25:11;;;;;;;37.10;21.50;;;;;;;;;;5110550;28;20393;-61
2022/03/29 07:27:36;;;;;;;37.88;20.88;;;7.10;99.90;;;;;;5110170;28;20039;-60
2022/03/29 07:30:04;;;;;;;35.13;21.30;;;6.80;99.90;;;;;;5106921;28;20051;-61
2022/03/29 07:32:30;;;;;;;33.40;19.83;;;;;;;;;;5108343;28;20039;-61
2022/03/29 07:34:56;;;;;;;36.30;19.60;;;;;;;;;;5107893;28;20039;-61
2022/03/29 07:37:23;;;;;;;36.97;21.80;;;;;;;;;;5094179;28;20047;-61
2022/03/29 07:39:53;;;;;;;35.65;20.63;;;7.40;99.90;;;;;;5097888;28;20049;-61
2022/03/29 07:42:21;;;;;;;38.63;20.67;;;7.40;99.90;;;;;;5097223;28;20052;-61
2022/03/29 07:44:49;;;;;;;33.90;19.65;;;;;;;;;;5087958;28;20078;-61
2022/03/29 07:47:17;;;;;;;31.95;18.38;;;7.40;99.90;;;;;;5090081;28;20048;-61
2022/03/29 07:49:43;;;;;;;44.28;20.50;;;;;;;;;;5089415;28;20104;-61
2022/03/29 07:52:09;;;;;;;35.53;19.70;;;;;;;;;;5087595;28;20046;-61
2022/03/29 07:54:35;;;;;;;33.45;19.10;;;7.70;99.90;;;;;;5088923;28;20532;-61
2022/03/29 07:57:01;;;;;;;39.90;20.25;;;7.30;99.90;;;;;;5090131;28;20144;-61
2022/03/29 07:59:27;;;;;;;35.88;20.25;;;7.70;99.90;;;;;;5088495;28;20563;-61
2022/03/29 08:01:54;;;;;;;36.15;18.80;;;7.70;99.90;;;;;;5098099;28;20040;-61
2022/03/29 08:04:21;;;;;;;43.15;20.10;;;7.30;99.90;;;;;;5101509;28;20369;-61
2022/03/29 08:06:46;;;;;;;38.83;21.00;;;7.70;99.90;;;;;;5094590;28;20094;-61
2022/03/29 08:09:14;;;;;;;35.53;18.45;;;8.10;99.90;;;;;;5090862;28;20151;-61
2022/03/29 08:11:40;;;;;;;37.05;18.60;;;;;;;;;;5104737;28;20492;-61
2022/03/29 08:14:06;;;;;;;29.63;16.95;;;8.10;99.90;;;;;;5108956;28;20087;-61
2022/03/29 08:16:33;;;;;;;29.45;16.15;;;8.10;99.90;;;;;;5100260;28;20544;-61
2022/03/29 08:19:00;;;;;;;33.50;16.40;;;8.20;99.90;;;;;;5108941;28;20047;-61
2022/03/29 08:24:11;;;;;;;31.48;16.52;;;;;;;;;;5107385;28;20126;-61
2022/03/29 08:26:37;;;;;;;29.52;15.68;;;8.20;99.90;;;;;;5093668;28;20044;-61
2022/03/29 08:29:04;;;;;;;31.42;15.15;;;;;;;;;;5106909;28;20035;-61
2022/03/29 08:31:30;;;;;;;29.40;16.38;;;;;;;;;;5104974;28;20417;-61
2022/03/29 08:33:55;;;;;;;26.13;13.82;;;8.60;99.90;;;;;;5097569;28;20123;-61
2022/03/29 08:36:21;;;;;;;25.65;14.70;;;;;;;;;;5107978;28;20133;-61
2022/03/29 08:38:47;;;;;;;28.08;14.90;;;;;;;;;;5108717;28;20048;-61
2022/03/29 08:41:13;;;;;;;28.67;14.77;;;8.20;99.90;;;;;;5094478;28;20075;-61
2022/03/29 08:43:40;;;;;;;26.17;15.45;;;8.20;99.90;;;;;;5103404;28;20039;-61
2022/03/29 08:46:06;;;;;;;25.88;15.82;;;;;;;;;;5107286;28;20038;-60
2022/03/29 08:48:32;;;;;;;34.85;15.18;;;;;;;;;;5112137;28;20084;-60
2022/03/29 08:50:59;;;;;;;31.02;16.00;;;9.20;99.90;;;;;;5113178;28;20035;-60
2022/03/29 08:53:28;;;;;;;26.55;16.05;;;;;;;;;;5112208;28;20043;-60
2022/03/29 08:55:54;;;;;;;27.92;15.25;;;9.10;99.90;;;;;;5105281;28;20040;-60
2022/03/29 08:58:22;;;;;;;29.55;16.35;;;;;;;;;;5111532;28;20091;-60
2022/03/29 09:00:51;;;;;;;29.05;14.68;;;9.00;99.90;;;;;;5105931;28;20484;-60
2022/03/29 09:03:17;;;;;;;26.67;13.93;;;8.90;99.90;;;;;;5110240;28;20071;-60
2022/03/29 09:05:43;;;;;;;26.85;14.77;;;9.00;99.90;;;;;;5095301;28;20039;-60
2022/03/29 09:08:11;;;;;;;25.70;14.20;;;;;;;;;;5102167;28;20728;-60
2022/03/29 09:10:48;;;;;;;23.80;10.90;;;9.00;99.90;;;;;;5110438;28;20047;-60
2022/03/29 09:13:16;;;;;;;23.67;10.02;;;9.30;99.90;;;;;;5113380;28;20067;-60
2022/03/29 09:15:42;;;;;;;27.58;10.45;;;9.30;99.90;;;;;;5110776;28;20126;-60
2022/03/29 09:18:08;;;;;;;24.65;9.32;;;9.10;99.90;;;;;;5109093;28;20127;-60
2022/03/29 09:20:34;;;;;;;26.83;9.07;;;;;;;;;;5095237;28;20249;-60
2022/03/29 09:23:00;;;;;;;19.95;7.53;;;8.80;99.90;;;;;;5105470;28;20062;-60
2022/03/29 09:25:38;;;;;;;28.52;9.20;;;9.30;99.90;;;;;;5098500;28;20354;-60
2022/03/29 09:28:06;;;;;;;25.50;10.25;;;9.40;99.90;;;;;;5111160;28;20086;-60
2022/03/29 09:30:38;;;;;;;25.27;8.80;;;;;;;;;;5105263;28;20047;-60
2022/03/29 09:33:17;;;;;;;23.70;9.73;;;;;;;;;;5107401;28;20043;-60
2022/03/29 09:36:07;;;;;;;21.55;10.18;;;9.60;99.90;;;;;;5110921;28;20078;-61
2022/03/29 09:38:36;;;;;;;26.20;10.77;;;9.40;99.90;;;;;;5097782;28;20036;-60
2022/03/29 09:41:04;;;;;;;22.77;10.50;;;9.70;99.90;;;;;;5103589;28;20032;-60
2022/03/29 09:43:31;;;;;;;23.73;9.57;;;9.70;99.90;;;;;;5101501;28;20048;-61
2022/03/29 09:46:02;;;;;;;23.08;9.13;;;9.70;99.90;;;;;;5100891;28;20399;-61
2022/03/29 09:48:40;;;;;;;31.92;10.82;;;9.50;99.90;;;;;;5095513;28;20082;-61
2022/03/29 09:51:08;;;;;;;22.08;8.35;;;9.70;99.90;;;;;;5092155;28;20040;-61
2022/03/29 09:53:40;;;;;;;21.52;7.75;;;9.60;99.90;;;;;;5090594;28;20054;-62
2022/03/29 09:56:11;;;;;;;20.85;7.90;;;9.40;99.90;;;;;;5092142;28;20059;-60
2022/03/29 09:58:39;;;;;;;21.45;8.50;;;9.60;99.90;;;;;;5090642;28;20142;-60
2022/03/29 10:01:19;;;;;;;29.25;10.25;;;9.30;99.90;;;;;;5093220;28;20072;-61
2022/03/29 10:03:46;;;;;;;18.58;7.93;;;;;;;;;;5111609;28;20373;-61
2022/03/29 10:06:12;;;;;;;19.77;8.20;;;9.40;99.90;;;;;;5098370;28;20056;-61
2022/03/29 10:11:27;;;;;;;23.33;9.00;;;9.80;99.90;;;;;;5091748;28;20044;-61
2022/03/29 10:13:54;;;;;;;24.58;9.68;;;9.90;99.90;;;;;;5096123;28;20496;-61
2022/03/29 10:16:20;;;;;;;27.25;9.35;;;9.80;99.90;;;;;;5104087;28;20048;-61
2022/03/29 10:18:46;;;;;;;24.33;9.23;;;9.80;99.90;;;;;;5096980;28;20039;-61
2022/03/29 10:21:16;;;;;;;22.63;7.75;;;;;;;;;;5097234;28;20047;-60
2022/03/29 10:23:49;;;;;;;21.25;9.23;;;;;;;;;;5099374;28;20122;-61
2022/03/29 10:26:18;;;;;;;20.35;8.95;;;10.00;99.90;;;;;;5105849;28;20123;-62
2022/03/29 10:28:48;;;;;;;23.35;9.55;;;10.10;99.90;;;;;;5082247;28;20050;-61
2022/03/29 10:31:39;;;;;;;17.77;9.20;;;9.90;99.90;;;;;;5092540;28;20079;-61
2022/03/29 10:34:45;;;;;;;21.08;8.43;;;10.20;99.90;;;;;;5086615;28;20079;-61
2022/03/29 10:37:12;;;;;;;;;;;10.00;99.90;;;;;;5093092;28;20055;-61
2022/03/29 10:39:42;;;;;;;19.42;7.72;;;9.90;99.90;;;;;;5092499;28;20037;-61
2022/03/29 10:42:33;;;;;;;37.58;10.40;;;10.20;99.90;;;;;;5092324;28;20040;-61
2022/03/29 10:45:18;;;;;;;27.00;8.82;;;10.20;99.90;;;;;;5093727;28;20048;-61
2022/03/29 10:48:05;;;;;;;20.98;9.15;;;9.80;99.90;;;;;;5092844;28;20115;-61
2022/03/29 10:50:56;;;;;;;21.52;9.65;;;10.00;99.90;;;;;;5092340;28;20051;-60
2022/03/29 10:53:45;;;;;;;29.60;8.68;;;10.30;99.90;;;;;;5091441;28;20055;-62
2022/03/29 10:56:15;;;;;;;18.27;8.73;;;10.10;99.90;;;;;;5093416;28;20468;-61
2022/03/29 10:59:02;;;;;;;22.85;8.70;;;10.40;99.90;;;;;;5093689;28;20044;-61
2022/03/29 11:01:32;;;;;;;21.52;8.55;;;10.40;99.90;;;;;;5092781;28;20480;-61
2022/03/29 11:04:07;;;;;;;18.80;8.05;;;10.40;99.90;;;;;;5092075;28;20048;-61
2022/03/29 11:06:33;;;;;;;22.17;8.93;;;10.70;99.90;;;;;;5092354;28;20040;-61
2022/03/29 11:09:05;;;;;;;17.13;7.30;;;10.50;99.90;;;;;;5091315;28;20561;-61
2022/03/29 11:11:48;;;;;;;18.33;7.55;;;10.30;99.90;;;;;;5092928;28;20044;-61
2022/03/29 11:17:21;;;;;;;19.90;8.40;;;10.20;99.90;;;;;;5093188;28;20181;-61
2022/03/29 11:19:50;;;;;;;19.92;8.18;;;9.80;99.90;;;;;;5092863;28;20044;-61
2022/03/29 11:22:32;;;;;;;23.02;7.43;;;9.70;99.90;;;;;;5092119;28;20042;-61
2022/03/29 11:25:10;;;;;;;19.48;7.95;;;9.70;99.90;;;;;;5092008;28;20063;-61
2022/03/29 11:27:37;;;;;;;21.77;9.05;;;9.80;99.90;;;;;;5091778;28;20048;-61
2022/03/29 11:30:21;;;;;;;22.67;8.55;;;9.50;99.90;;;;;;5091938;28;20488;-61
2022/03/29 11:32:47;;;;;;;17.95;7.57;;;;;;;;;;5091595;28;20044;-61
2022/03/29 11:35:19;;;;;;;24.33;7.97;;;;;;;;;;5091645;28;20046;-60
2022/03/29 11:37:46;;;;;;;23.90;8.27;;;9.70;99.90;;;;;;5092852;28;20036;-61
2022/03/29 11:40:14;;;;;;;17.25;9.98;;;9.70;99.90;;;;;;5092586;28;20128;-61
2022/03/29 11:42:54;;;;;;;23.65;8.60;;;9.80;99.90;;;;;;5090561;28;20055;-61
2022/03/29 11:45:22;;;;;;;18.45;7.68;;;9.50;99.90;;;;;;5074443;28;20125;-61
2022/03/29 11:48:00;;;;;;;19.40;6.78;;;9.60;99.90;;;;;;5091197;28;20124;-61
2022/03/29 11:50:52;;;;;;;17.70;8.05;;;9.70;99.90;;;;;;5090548;28;20050;-61
2022/03/29 11:53:32;;;;;;;25.38;10.30;;;9.70;99.90;;;;;;5092236;28;20488;-61
2022/03/29 11:56:12;;;;;;;23.00;8.80;;;9.70;99.90;;;;;;5091230;28;20160;-61
2022/03/29 11:58:44;;;;;;;17.25;8.10;;;9.90;99.90;;;;;;5091854;28;20515;-61
2022/03/29 12:01:36;;;;;;;20.63;8.93;;;9.50;99.90;;;;;;5092417;28;20052;-61
2022/03/29 12:04:03;;;;;;;22.42;9.95;;;9.90;99.90;;;;;;5090382;28;20051;-61
2022/03/29 12:06:45;;;;;;;18.00;9.32;;;10.10;99.90;;;;;;5091017;28;20048;-61
2022/03/29 12:09:12;;;;;;;17.90;9.10;;;10.00;99.90;;;;;;5092284;28;20036;-61
2022/03/29 12:11:40;;;;;;;19.25;9.18;;;10.10;99.90;;;;;;5090412;28;20043;-61
2022/03/29 12:14:14;;;;;;;19.02;8.88;;;10.20;99.90;;;;;;5092356;28;20050;-60
2022/03/29 12:16:45;;;;;;;18.80;8.10;;;9.50;99.90;;;;;;5092218;28;20408;-61
2022/03/29 12:19:25;;;;;;;24.52;8.80;;;10.00;99.90;;;;;;5089924;28;20047;-61
2022/03/29 12:21:53;;;;;;;24.30;9.88;;;10.40;99.90;;;;;;5092221;28;20043;-61
2022/03/29 12:24:20;;;;;;;22.48;11.73;;;10.10;99.90;;;;;;5090548;28;20055;-61
2022/03/29 12:26:52;;;;;;;24.15;11.77;;;10.50;99.90;;;;;;5090224;28;20130;-61
2022/03/29 12:29:21;;;;;;;22.48;8.70;;;10.20;99.90;;;;;;5090955;28;20094;-61
2022/03/29 12:31:48;;;;;;;20.98;9.10;;;10.30;99.90;;;;;;5090017;28;20047;-61
2022/03/29 12:34:18;;;;;;;15.98;8.55;;;9.90;99.90;;;;;;5090990;28;20040;-61
2022/03/29 12:36:52;;;;;;;17.15;8.27;;;10.00;99.90;;;;;;5090946;28;20036;-61
2022/03/29 12:39:18;;;;;;;20.65;8.57;;;10.30;99.90;;;;;;5091196;28;20036;-61
2022/03/29 12:41:52;;;;;;;18.08;8.15;;;9.70;99.90;;;;;;5090931;28;20032;-61
2022/03/29 12:44:36;;;;;;;21.67;9.23;;;10.40;99.90;;;;;;5092398;28;20366;-61
2022/03/29 12:47:03;;;;;;;20.83;8.65;;;10.20;99.90;;;;;;5091114;28;20044;-61
2022/03/29 12:49:29;;;;;;;21.10;7.85;;;10.10;99.90;;;;;;5091611;28;20047;-61
2022/03/29 12:51:59;;;;;;;21.33;8.25;;;10.60;99.90;;;;;;5091991;28;20044;-61
2022/03/29 12:54:34;;;;;;;16.85;8.55;;;10.30;99.90;;;;;;5090955;28;20464;-61
2022/03/29 12:57:00;;;;;;;16.75;8.43;;;11.00;99.90;;;;;;5090563;28;20062;-61
2022/03/29 12:59:32;;;;;;;21.08;8.80;;;10.40;99.90;;;;;;5091836;28;20110;-61
2022/03/29 13:02:12;;;;;;;20.08;11.75;;;10.80;99.90;;;;;;5091449;28;20055;-61
2022/03/29 13:05:06;;;;;;;26.10;10.73;;;10.80;99.90;;;;;;5090884;28;20040;-61
2022/03/29 13:07:45;;;;;;;20.73;9.35;;;10.80;99.90;;;;;;5090155;28;20404;-61
2022/03/29 13:10:15;;;;;;;18.23;8.65;;;10.60;99.90;;;;;;5090535;28;20071;-61
2022/03/29 13:12:59;;;;;;;22.73;9.45;;;11.40;99.90;;;;;;5073555;28;20036;-61